Latest Weather Observations for Mount Baw Baw

IDV60801

Issued at 7:05 pm EDT Saturday 1 November 2014 (issued every 30 minutes, with the page automatically refreshed every 10 minutes)

About weather observations | Map of weather stations | Latest weather observations for VIC | Other Formats
Station Details ID: 085291 Name: MOUNT BAW BAW Lat: -37.84 Lon: 146.27 Height: 1561.0 m
Data from the previous 72 hours. | See also: Recent months at Mount Baw Baw
Date/Time
EDT
Temp
°C
App
Temp
°C
Dew
Point
Rel
Hum
%
Delta-T
°C
Wind Press
QNH
hPa
Press
MSL
hPa
Rain
since 9 am
mm
Dir
 
Spd
km/h
Gust
km/h
Spd
kts
Gust
kts
01/07:00pm -1.7 -10.2 -1.8 99 0.0 WSW 33 56 - 30 - - 16.2
01/06:33pm -1.5 -9.8 -1.6 99 0.0 WSW 32 50 - 27 - - 15.4
01/06:30pm -1.4 -9.7 -1.5 99 0.0 WSW 32 44 - 24 - - 15.2
01/06:03pm -1.5 -9.0 -1.6 99 0.0 WSW 28 46 - 25 - - 14.6
01/06:00pm -1.4 -8.2 -1.5 99 0.0 WSW 24 43 - 23 - - 14.6
01/05:30pm -1.9 -9.9 -2.0 99 -0.1 WSW 30 48 - 26 - - 14.4
01/05:00pm -1.5 -10.0 -1.6 99 0.0 WSW 33 54 - 29 - - 13.8
01/04:33pm -0.3 -8.4 -0.4 99 0.0 WSW 32 50 - 27 - - 13.8
01/04:30pm -0.3 -8.6 -0.4 99 0.0 WSW 33 50 - 27 - - 13.8
01/04:00pm -0.4 -9.9 -0.5 99 0.0 WSW 39 65 - 35 - - 13.6
01/03:32pm 0.4 -7.2 0.3 99 0.0 WSW 30 52 - 28 - - 13.4
01/03:30pm 0.4 -6.9 0.3 99 0.0 WSW 28 44 - 24 - - 13.4
01/03:01pm 0.5 -6.7 0.4 99 0.0 WSW 28 46 - 25 - - 13.2
01/03:00pm 0.6 -6.6 0.5 99 0.0 WSW 28 43 - 23 - - 13.2
01/02:30pm 0.6 -7.0 0.5 99 0.0 WSW 30 48 - 26 - - 13.2
01/02:00pm 1.5 -6.0 1.4 99 0.0 WSW 30 50 - 27 - - 12.4
01/01:41pm 1.2 -5.9 1.1 99 0.0 WSW 28 52 - 28 - - 12.4
01/01:30pm 2.0 -3.9 1.9 99 0.0 W 22 37 - 20 - - 10.8
01/01:00pm 1.6 -4.7 1.5 99 0.0 W 24 39 - 21 - - 10.6
01/12:35pm 1.4 -6.1 1.3 99 0.0 WSW 30 48 - 26 - - 10.6
01/12:30pm 1.4 -5.7 1.3 99 0.0 WSW 28 43 - 23 - - 10.6
01/12:20pm 1.6 -5.5 1.5 99 0.0 WSW 28 46 - 25 - - 10.6
01/12:00pm 2.2 -4.4 2.1 99 0.0 WSW 26 50 - 27 - - 10.6
01/11:44am 2.4 -4.5 2.3 99 0.0 WSW 28 48 - 26 - - 10.6
01/11:30am 3.0 -3.5 2.9 99 0.0 WSW 26 37 - 20 - - 9.4
01/11:00am 3.8 -2.1 3.7 99 0.0 WSW 24 39 - 21 - - 6.6
01/10:30am 4.0 -2.7 3.9 99 0.0 WSW 28 46 - 25 - - 4.6
01/10:14am 4.3 -2.3 4.2 99 0.0 SW 28 46 - 25 - - 3.4
01/10:00am 4.8 -0.6 4.7 99 0.0 WSW 22 33 - 18 - - 1.8
01/09:30am 4.6 -1.6 4.5 99 0.0 WSW 26 39 - 21 - - 0.8
01/09:00am 5.1 0.2 5.0 99 0.0 WSW 20 35 - 19 - - 11.0
01/08:30am 5.6 0.8 5.5 99 0.0 WSW 20 32 - 17 - - -
01/08:00am 6.0 1.8 5.9 99 0.0 W 17 28 - 15 - - -
01/07:30am 6.8 2.4 6.7 99 0.1 WSW 19 28 - 15 - - -
01/07:00am 7.6 3.2 7.5 99 0.1 W 20 39 - 21 - - -
01/06:30am 8.3 4.0 7.2 93 0.6 WNW 19 35 - 19 - - -
01/06:00am 7.7 3.1 6.6 93 0.6 W 20 35 - 19 - - -
01/05:30am 8.4 2.9 4.0 74 2.1 W 22 35 - 19 - - -
01/05:00am 5.8 1.0 5.7 99 0.0 WSW 20 41 - 22 - - -
01/04:30am 7.5 3.4 4.1 79 1.6 W 15 26 - 14 - - -
01/04:00am 5.9 2.5 5.8 99 0.0 SW 13 26 - 14 - - -
01/03:30am 5.9 0.0 5.8 99 0.0 SW 26 41 - 22 - - -
01/03:00am 7.4 2.4 3.6 77 1.8 WSW 19 33 - 18 - - -
01/02:30am 8.7 4.4 3.1 68 2.6 WSW 15 20 - 11 - - -
01/02:00am 8.6 3.0 3.6 71 2.4 SW 22 32 - 17 - - 0.0
01/01:30am 10.1 5.2 4.0 66 3.0 SW 19 33 - 18 - - 0.0
01/01:27am 11.3 7.1 3.6 59 3.7 WSW 15 32 - 17 - - 0.0
01/01:00am 16.3 10.3 -1.7 29 8.1 N 20 39 - 21 - - 0.0
01/12:30am 16.0 10.0 -1.5 30 7.9 N 20 39 - 21 - - 0.0
01/12:00am 16.5 10.1 -1.6 29 8.2 N 22 39 - 21 - - 0.0
 
Date/Time
EDT
Temp
°C
App
Temp
°C
Dew
Point
Rel
Hum
%
Delta-T
°C
Wind Press
QNH
hPa
Press
MSL
hPa
Rain
since 9 am
mm
Dir
 
Spd
km/h
Gust
km/h
Spd
kts
Gust
kts
31/11:30pm 16.2 10.2 -1.4 30 8.0 N 20 35 - 19 - - 0.0
31/11:00pm 16.0 10.3 -1.1 31 7.8 N 19 35 - 19 - - 0.0
31/10:30pm 15.6 9.9 -0.6 33 7.4 N 19 32 - 17 - - 0.0
31/10:00pm 15.5 10.2 -0.3 34 7.3 NNE 17 37 - 20 - - 0.0
31/09:30pm 15.4 10.2 0.4 36 7.0 NNE 17 33 - 18 - - 0.0
31/09:00pm 15.5 10.4 0.5 36 7.0 NNE 17 35 - 19 - - 0.0
31/08:30pm 15.5 10.8 0.9 37 6.9 N 15 32 - 17 - - 0.0
31/08:00pm 15.7 11.0 1.1 37 6.9 N 15 33 - 18 - - 0.0
31/07:30pm 15.9 10.9 1.2 37 7.0 N 17 33 - 18 - - 0.0
31/07:00pm 16.0 11.4 1.7 38 6.9 N 15 39 - 21 - - 0.0
31/06:30pm 16.6 12.1 2.2 38 7.1 N 15 26 - 14 - - 0.0
31/06:00pm 16.8 11.3 1.7 36 7.3 NNW 20 32 - 17 - - 0.0
31/05:30pm 16.7 12.6 2.3 38 7.1 N 13 28 - 15 - - 0.0
31/05:00pm 17.4 12.9 2.2 36 7.5 N 15 33 - 18 - - 0.0
31/04:30pm 17.6 13.3 1.2 33 7.9 NNW 13 30 - 16 - - 0.0
31/04:00pm 17.7 12.6 0.8 32 8.1 NNW 17 37 - 20 - - 0.0
31/03:30pm 17.5 12.1 1.1 33 7.9 NNW 19 43 - 23 - - 0.0
31/03:00pm 16.7 11.2 0.8 34 7.6 NNW 19 41 - 22 - - 0.0
31/02:30pm 15.7 10.4 -0.5 33 7.5 N 17 35 - 19 - - 0.0
31/02:00pm 15.5 10.0 -2.0 30 7.8 N 17 30 - 16 - - 0.0
31/01:30pm 15.7 9.8 -5.3 23 8.7 N 17 35 - 19 - - 0.0
31/01:00pm 15.1 9.4 -3.7 27 8.1 N 17 32 - 17 - - 0.0
31/12:30pm 15.3 9.1 -4.6 25 8.4 N 19 43 - 23 - - 0.0
31/12:00pm 14.1 8.8 -3.2 30 7.4 N 15 28 - 15 - - 0.0
31/11:30am 13.5 8.1 -4.2 29 7.4 N 15 37 - 20 - - 0.0
31/11:00am 12.9 7.1 -4.7 29 7.2 N 17 26 - 14 - - 0.0
31/10:30am 13.0 8.4 -4.1 30 7.1 NNW 11 22 - 12 - - 0.0
31/10:00am 13.3 9.5 -1.1 37 6.4 N 9 22 - 12 - - 0.0
31/09:30am 12.7 7.8 -3.5 32 6.8 NW 13 20 - 11 - - 0.0
31/09:00am 12.0 6.3 -7.9 24 7.5 WNW 15 24 - 13 - - 0.0
31/08:30am 11.0 5.4 -6.8 28 6.8 WNW 15 30 - 16 - - 0.0
31/08:00am 10.0 4.5 -5.1 34 6.0 NW 15 22 - 12 - - 0.0
31/07:30am 9.0 3.7 -3.9 40 5.2 W 15 28 - 15 - - 0.0
31/07:00am 8.9 3.0 -5.7 35 5.6 W 17 26 - 14 - - 0.0
31/06:30am 8.6 3.2 -4.6 39 5.2 W 15 24 - 13 - - 0.0
31/06:00am 9.0 3.2 -4.5 38 5.3 W 17 26 - 14 - - 0.0
31/05:30am 9.1 3.5 -3.1 42 5.0 WNW 17 32 - 17 - - 0.0
31/05:00am 9.1 3.5 -2.8 43 4.9 WNW 17 28 - 15 - - 0.0
31/04:30am 9.3 4.1 -2.9 42 5.0 WNW 15 26 - 14 - - 0.0
31/04:00am 9.1 3.6 -1.9 46 4.6 WNW 17 28 - 15 - - 0.0
31/03:30am 9.2 3.9 -0.4 51 4.2 NW 17 24 - 13 - - 0.0
31/03:00am 9.0 3.9 1.0 57 3.6 WNW 17 28 - 15 - - 0.0
31/02:30am 8.9 3.8 0.9 57 3.6 WNW 17 28 - 15 - - 0.0
31/02:00am 9.0 4.7 1.0 57 3.6 NW 13 30 - 16 - - 0.0
31/01:30am 9.2 4.9 1.1 57 3.7 NNW 13 22 - 12 - - 0.0
31/01:00am 9.2 4.9 1.1 57 3.7 NNW 13 20 - 11 - - 0.0
31/12:30am 8.9 5.0 1.1 58 3.5 NNW 11 20 - 11 - - 0.0
31/12:00am 9.2 4.6 1.4 58 3.5 WNW 15 24 - 13 - - 0.0
 
Date/Time
EDT
Temp
°C
App
Temp
°C
Dew
Point
Rel
Hum
%
Delta-T
°C
Wind Press
QNH
hPa
Press
MSL
hPa
Rain
since 9 am
mm
Dir
 
Spd
km/h
Gust
km/h
Spd
kts
Gust
kts
30/11:30pm 9.3 5.1 1.5 58 3.6 WNW 13 24 - 13 - - 0.0
30/11:00pm 9.2 5.1 2.3 62 3.2 WNW 13 22 - 12 - - 0.0
30/10:30pm 9.2 5.7 3.4 67 2.8 WNW 11 19 - 10 - - 0.0
30/10:00pm 9.1 5.8 4.7 74 2.2 NNW 11 19 - 10 - - 0.0
30/09:30pm 9.3 6.0 4.7 73 2.3 N 11 20 - 11 - - 0.0
30/09:00pm 9.4 6.1 4.6 72 2.3 N 11 17 - 9 - - 0.0
30/08:30pm 9.4 6.2 5.2 75 2.1 N 11 19 - 10 - - 0.0
30/08:00pm 9.8 6.6 5.0 72 2.4 N 11 15 - 8 - - 0.0
30/07:30pm 10.4 7.5 4.8 68 2.8 N 9 17 - 9 - - 0.0
30/07:00pm 11.1 7.9 5.0 66 3.0 N 11 20 - 11 - - 0.0
30/06:30pm 12.1 8.9 5.3 63 3.4 NNW 11 19 - 10 - - 0.0
30/06:00pm 12.6 9.6 5.8 63 3.5 NW 11 22 - 12 - - 0.0
30/05:30pm 12.9 9.4 5.3 60 3.9 NNW 13 32 - 17 - - 0.0
30/05:00pm 13.3 9.9 5.7 60 3.9 NW 13 24 - 13 - - 0.0
30/04:30pm 13.5 9.9 4.9 56 4.4 WNW 13 24 - 13 - - 0.0
30/04:00pm 13.8 9.8 4.9 55 4.5 W 15 26 - 14 - - 0.0
30/03:30pm 13.4 9.8 5.1 57 4.2 W 13 24 - 13 - - 0.0
30/03:00pm 14.0 11.2 6.8 62 3.8 WNW 11 20 - 11 - - 0.0
30/02:30pm 13.1 9.8 6.2 63 3.6 WSW 13 24 - 13 - - 0.0
30/02:00pm 12.3 8.7 5.2 62 3.6 WSW 13 24 - 13 - - 0.0
30/01:30pm 12.4 9.7 8.9 79 1.9 WSW 13 22 - 12 - - 0.0
30/01:00pm 12.8 7.9 5.0 59 3.9 SW 20 28 - 15 - - 0.0
30/12:30pm 11.9 7.6 1.3 48 4.9 W 13 28 - 15 - - 0.0
30/12:00pm 10.7 5.9 2.5 57 3.9 W 17 24 - 13 - - 0.0
30/11:30am 9.8 5.5 3.5 65 3.0 W 15 28 - 15 - - 0.0
30/11:00am 9.4 5.3 4.6 72 2.3 W 15 26 - 14 - - 0.0
30/10:30am 8.8 3.7 2.8 66 2.8 W 19 37 - 20 - - 0.0
30/10:00am 8.3 3.1 2.5 67 2.7 WNW 19 32 - 17 - - 0.0
30/09:30am 7.7 2.9 4.7 81 1.5 W 19 35 - 19 - - 0.0
30/09:00am 7.0 1.6 4.3 83 1.3 W 22 37 - 20 - - 0.0
30/08:30am 6.4 1.3 4.2 86 1.0 W 20 32 - 17 - - 0.0
30/08:00am 6.0 0.9 4.2 88 0.8 W 20 32 - 17 - - 0.0
30/07:30am 5.4 0.6 4.5 94 0.4 W 19 28 - 15 - - 0.0
30/07:00am 5.2 0.3 4.3 94 0.4 W 19 35 - 19 - - 0.0
30/06:30am 5.2 -0.1 2.9 85 1.0 W 20 35 - 19 - - 0.0
30/06:00am 5.4 0.0 4.4 93 0.5 W 22 39 - 21 - - 0.0
30/05:30am 5.7 0.6 3.9 88 0.8 W 20 32 - 17 - - 0.0
30/05:00am 5.8 0.8 3.5 85 1.1 W 19 32 - 17 - - 0.0
30/04:30am 6.0 0.8 3.5 84 1.2 W 20 35 - 19 - - 0.0
30/04:00am 6.0 1.0 3.8 86 1.0 W 19 37 - 20 - - 0.0
30/03:30am 5.5 1.0 4.3 92 0.6 W 17 32 - 17 - - 0.0
30/03:00am 5.1 0.7 5.0 99 0.0 W 17 28 - 15 - - 0.0
30/02:30am 4.6 0.5 4.5 99 0.0 W 15 24 - 13 - - 0.0
30/02:00am 4.7 1.0 4.6 99 0.0 W 13 24 - 13 - - 0.0
30/01:30am 4.7 1.4 4.6 99 0.0 WNW 11 20 - 11 - - 0.0
30/01:00am 4.7 1.4 4.6 99 0.0 NNW 11 20 - 11 - - 0.0
30/12:30am 5.2 1.9 4.3 94 0.4 NNW 11 19 - 10 - - 0.0
30/12:00am 5.7 2.3 4.0 89 0.8 NNW 11 19 - 10 - - 0.0
 
Date/Time
EDT
Temp
°C
App
Temp
°C
Dew
Point
Rel
Hum
%
Delta-T
°C
Wind Press
QNH
hPa
Press
MSL
hPa
Rain
since 9 am
mm
Dir
 
Spd
km/h
Gust
km/h
Spd
kts
Gust
kts
29/11:30pm 5.7 2.3 4.0 89 0.8 NW 11 19 - 10 - - 0.0
29/11:00pm 5.8 2.5 4.3 90 0.7 NW 11 19 - 10 - - 0.0
29/10:30pm 6.1 2.8 4.4 89 0.8 NW 11 19 - 10 - - 0.0
29/10:00pm 6.2 2.9 4.5 89 0.8 WNW 11 20 - 11 - - 0.0
29/09:30pm 6.2 2.5 4.7 90 0.7 W 13 22 - 12 - - 0.0
29/09:00pm 6.3 3.2 5.4 94 0.4 NW 11 20 - 11 - - 0.0
29/08:30pm 6.7 4.2 6.4 98 0.1 N 9 17 - 9 - - 0.0
29/08:00pm 7.3 4.6 7.2 99 0.1 WNW 11 17 - 9 - - 0.0
29/07:30pm 7.6 4.9 7.3 98 0.2 WNW 11 20 - 11 - - 0.0

Other Formats:

Comma delimited format used in spreadsheet applications
http://www.bom.gov.au/fwo/IDV60801/IDV60801.95901.axf

JavaScript Object Notation format (JSON) in row-major order
http://www.bom.gov.au/fwo/IDV60801/IDV60801.95901.json